Portada
METAR-TAF:

METAR-TAF

Aeroports :

Burayda, Aràbia Saudita

latitud: 26-18N, longitud: 043-46E, altitud: 648 m

Observació

L'informe es va fer fa 45 minuts, a les 22:00 UTC
Vent 19 kt del Nord
Temperatura 17°C
Humitat 63%
Pressió 1015 hPa
Visibilitat 10 km o més
Núvols disperses a una alçada de 4000 ft

METAR: OEGS 062200Z 36019KT 9999 SCT040 17/10 Q1015

Hora: 01:45 (22:45 UTC)

Pronòstic

L'informe es va fer fa 11 hores i 45 minuts, a les 11:00 UTC
Pronòstic vàlid del 06 a les 12 UTC al 07 a les 18 UTC
Vent 10 kt del Sud
Visibilitat: 7000 m
Escasses núvols a una alçada de 4000 ft
Temporalment
l' 06 a les 12 UTC al 06 a les 20 UTC
Escasses núvols a una alçada de 3500 ft, Cumulonimbus.
Núvols disperses a una alçada de 4000 ft

TAF: OEGS 061100Z 0612/0718 19010KT 7000 FEW040 TEMPO 0612/0620 FEW035CB SCT040

Observacions i pronòstics meteorològics de més de 4000 aeroports (METAR i TAF).

Les estacions disponibles són els punts grocs i vermells al mapa.

Posi el ratolí al punt desitjat per veure el nom de l'estació.

Feu clic per veure les observacions i els pronòstics meteorològics.

Per canviar el mapa: feu clic els botons verds amb una creu de color negre per apropar; al botó verd amb un guió per allunyar la imatge; o en les fletxes verdes per a mapes adjacents.


METAR-TAF: